Home   Weather   Oberstedten   Past weeks
Flag for Germany

Past Weather in Oberstedten, Hesse, Germany — September 2020

Currently: 64 °F. Passing clouds. (Weather station: Frankfurt-M-Flughafen Airport, Germany). See more current weather

September 2020 Weather in Oberstedten — Graph

°F

High & Low Weather Summary for September 2020

 TemperatureHumidityPressure
High91 °F (Sep 16, 3:20 pm)100% (Sep 3, 4:50 am)30.36 "Hg (Sep 3, 4:50 am)
Low41 °F (Sep 28, 7:20 am)24% (Sep 8, 5:50 pm)29.45 "Hg (Sep 26, 6:50 am)
Average63 °F64%30.02 "Hg
* Reported Sep 1 12:20 am — Sep 30 11:50 pm, Oberstedten. Weather by CustomWeather, © 2022

Note: Actual official high and low records may vary slightly from our data, if they occured in-between our weather recording intervals... More about our weather records

Oberstedten Weather History for September 1, 2020

Scroll right to see more
 ConditionsComfort  
Time TempWeatherWind HumidityBarometerVisibility
12:20 am
Tue, Sep 1
59 °FClear.6 mph82%30.07 "Hg10 mi
12:50 am59 °FClear.6 mph82%30.07 "Hg10 mi
1:20 am57 °FClear.6 mph88%30.07 "Hg10 mi
1:50 am55 °FClear.7 mph94%30.07 "Hg10 mi
2:50 am57 °FClear.7 mph88%30.07 "Hg10 mi
3:20 am57 °FClear.8 mph88%30.07 "Hg10 mi
4:20 am59 °FClear.8 mph72%30.04 "Hg10 mi
4:50 am59 °FClear.9 mph72%30.04 "Hg10 mi
5:20 am59 °FClear.10 mph72%30.04 "Hg10 mi
5:50 am57 °FClear.12 mph77%30.04 "Hg10 mi
6:20 am57 °FPassing clouds.6 mph77%30.04 "HgN/A
6:50 am55 °FScattered clouds.6 mph82%30.04 "HgN/A
7:20 am57 °FBroken clouds.2 mph77%30.07 "HgN/A
7:50 am57 °FScattered clouds.6 mph77%30.07 "HgN/A
8:20 am59 °FScattered clouds.7 mph72%30.07 "HgN/A
8:50 am61 °FPassing clouds.9 mph72%30.07 "HgN/A
9:20 am61 °FPassing clouds.9 mph68%30.07 "HgN/A
9:50 am63 °FPassing clouds.7 mph68%30.07 "HgN/A
10:20 am64 °FPassing clouds.8 mph64%30.04 "HgN/A
10:50 am64 °FPassing clouds.7 mph64%30.04 "HgN/A
11:20 am64 °FPassing clouds.8 mph64%30.04 "HgN/A
11:50 am66 °FPassing clouds.9 mph60%30.04 "HgN/A
12:20 pm68 °FPassing clouds.10 mph56%30.04 "HgN/A
12:50 pm70 °FPassing clouds.9 mph53%30.04 "HgN/A
1:20 pm70 °FPassing clouds.10 mph46%30.04 "HgN/A
1:50 pm68 °FPassing clouds.10 mph46%30.04 "HgN/A
2:20 pm70 °FPassing clouds.6 mph38%30.04 "HgN/A
2:50 pm72 °FPassing clouds.7 mph38%30.01 "HgN/A
3:20 pm72 °FPassing clouds.7 mph36%30.01 "HgN/A
3:50 pm72 °FPassing clouds.8 mph36%30.01 "HgN/A
4:20 pm70 °FPassing clouds.12 mph38%30.01 "HgN/A
4:50 pm70 °FPassing clouds.8 mph40%30.01 "HgN/A
5:20 pm70 °FPassing clouds.8 mph43%30.01 "HgN/A
5:50 pm70 °FSunny.13 mph38%30.01 "Hg10 mi
6:20 pm68 °FSunny.14 mph40%30.01 "Hg10 mi
6:50 pm68 °FSunny.12 mph43%30.01 "Hg10 mi
7:20 pm66 °FSunny.13 mph52%30.01 "Hg10 mi
7:50 pm64 °FPassing clouds.12 mph56%30.01 "HgN/A
8:20 pm64 °FPassing clouds.9 mph56%30.04 "HgN/A
8:50 pm63 °FPassing clouds.7 mph64%30.04 "HgN/A
9:20 pm61 °FClear.8 mph68%30.04 "Hg10 mi
9:50 pm63 °FPassing clouds.7 mph64%30.04 "HgN/A
10:20 pm63 °FClear.9 mph64%30.04 "Hg10 mi
10:50 pm61 °FClear.10 mph68%30.04 "Hg10 mi
11:20 pm61 °FClear.12 mph68%30.04 "Hg10 mi
11:50 pm61 °FClear.8 mph68%30.04 "Hg10 mi
Weather by CustomWeather, © 2022

See weather overview